Terminal Aerodrome Forecast
Issued by NWS Burlington, VT

Home | Current Version | Previous Version | Text Only | Print | Product List | Glossary On
Versions: 1 2 3 4 5 6 7 8 9 10 11 12 13 14 15 16 17 18 19
918
FTUS41 KBTV 031134
TAFBTV
TAF
KBTV 031134Z 0312/0412 36006KT P6SM SCT006 OVC025
      TEMPO 0312/0314 BKN006
     FM031400 VRB03KT P6SM SCT008 BKN015
     FM031600 35004KT P6SM BKN035
     FM031900 34005KT P6SM SCT110
     FM041100 14004KT P6SM BKN070=

USA.gov is the U.S. government's official web portal to all federal, state and local government web resources and services.